Time;durP1;ratioP1;P1;durP2;ratioP2;P2;SDS_P1;SDS_P2;PMS_P1;PMS_P2;Temp;Humidity;BMP_temperature;BMP_pressure;BME280_temperature;BME280_humidity;BME280_pressure;Samples;Min_cycle;Max_cycle;Signal;HPM_P1;HPM_P2
2020/12/04 00:02:18;;;;;;;26.03;19.63;;;1.10;99.90;;;;;;4994157;28;20574;-41
2020/12/04 00:04:45;;;;;;;25.57;19.40;;;1.10;99.90;;;;;;4994055;28;20214;-43
2020/12/04 00:07:12;;;;;;;25.60;18.53;;;1.10;99.90;;;;;;4993994;28;20214;-42
2020/12/04 00:09:43;;;;;;;23.07;18.47;;;1.10;99.90;;;;;;4994253;28;20210;-45
2020/12/04 00:12:10;;;;;;;24.57;17.43;;;1.10;99.90;;;;;;4994398;28;20269;-42
2020/12/04 00:14:39;;;;;;;23.92;18.85;;;1.10;99.90;;;;;;4993734;28;20301;-41
2020/12/04 00:17:06;;;;;;;25.93;18.07;;;1.10;99.90;;;;;;4993842;28;20316;-44
2020/12/04 00:19:33;;;;;;;24.53;18.00;;;1.00;99.90;;;;;;4993766;28;20304;-43
2020/12/04 00:22:00;;;;;;;26.73;19.23;;;1.00;99.90;;;;;;4993682;28;20297;-44
2020/12/04 00:24:29;;;;;;;24.87;18.53;;;1.00;99.90;;;;;;4993686;28;20301;-43
2020/12/04 00:26:56;;;;;;;22.87;17.80;;;1.00;99.90;;;;;;4993680;28;20305;-42
2020/12/04 00:29:23;;;;;;;26.47;20.23;;;1.10;99.90;;;;;;4993580;28;20214;-43
2020/12/04 00:31:51;;;;;;;22.50;17.63;;;1.10;99.90;;;;;;4993556;28;20261;-42
2020/12/04 00:34:18;;;;;;;24.20;18.07;;;1.10;99.90;;;;;;4993630;28;20284;-42
2020/12/04 00:36:45;;;;;;;23.77;18.70;;;1.20;99.90;;;;;;4993611;28;20210;-42
2020/12/04 00:39:12;;;;;;;24.73;18.97;;;1.10;99.90;;;;;;4993425;28;20632;-41
2020/12/04 00:41:39;;;;;;;24.57;18.83;;;1.10;99.90;;;;;;4993490;28;20213;-42
2020/12/04 00:44:06;;;;;;;28.20;18.97;;;1.00;99.90;;;;;;4993212;28;20308;-43
2020/12/04 00:46:33;;;;;;;23.23;17.17;;;1.00;99.90;;;;;;4993194;28;20280;-41
2020/12/04 00:49:01;;;;;;;24.63;19.00;;;1.00;99.90;;;;;;4993021;28;20300;-44
2020/12/04 00:51:28;;;;;;;26.23;19.57;;;0.90;99.90;;;;;;4993230;28;20230;-44
2020/12/04 00:53:55;;;;;;;23.23;18.40;;;0.90;99.90;;;;;;4993259;28;20300;-42
2020/12/04 00:56:22;;;;;;;23.47;18.67;;;0.90;99.90;;;;;;4993127;28;20241;-42
2020/12/04 00:58:49;;;;;;;25.60;18.77;;;1.00;99.90;;;;;;4992965;28;20297;-43
2020/12/04 01:01:17;;;;;;;27.00;19.20;;;1.00;99.90;;;;;;4993066;28;20241;-43
2020/12/04 01:03:43;;;;;;;22.47;18.33;;;1.00;99.90;;;;;;4992831;28;20210;-42
2020/12/04 01:06:13;;;;;;;29.80;19.07;;;1.00;99.90;;;;;;4993110;28;20293;-42
2020/12/04 01:08:42;;;;;;;26.43;18.70;;;1.00;99.90;;;;;;4993173;28;20210;-44
2020/12/04 01:11:09;;;;;;;25.83;18.83;;;1.00;99.90;;;;;;4992792;28;20214;-43
2020/12/04 01:13:36;;;;;;;24.37;19.07;;;1.00;99.90;;;;;;4992833;28;20214;-43
2020/12/04 01:16:03;;;;;;;22.97;17.70;;;1.00;99.90;;;;;;4992715;28;20289;-43
2020/12/04 01:18:30;;;;;;;26.83;18.13;;;1.00;99.90;;;;;;4992593;28;20261;-46
2020/12/04 01:20:58;;;;;;;26.23;19.00;;;0.90;99.90;;;;;;4993059;28;20214;-44
2020/12/04 01:23:26;;;;;;;26.27;19.43;;;0.80;99.90;;;;;;4992786;28;20604;-42
2020/12/04 01:25:53;;;;;;;26.10;19.63;;;0.80;99.90;;;;;;4992622;28;20301;-43
2020/12/04 01:28:20;;;;;;;27.50;18.63;;;0.80;99.90;;;;;;4992583;28;20336;-43
2020/12/04 01:30:47;;;;;;;26.23;17.90;;;0.70;99.90;;;;;;4992618;28;20218;-43
2020/12/04 01:33:14;;;;;;;26.15;19.50;;;0.80;99.90;;;;;;4992306;28;20325;-43
2020/12/04 01:35:41;;;;;;;24.77;18.33;;;0.90;99.90;;;;;;4992308;28;20210;-44
2020/12/04 01:38:08;;;;;;;27.00;18.50;;;1.00;99.90;;;;;;4992482;28;20260;-44
2020/12/04 01:40:36;;;;;;;27.83;18.63;;;1.00;99.90;;;;;;4992343;28;20221;-44
2020/12/04 01:43:03;;;;;;;27.43;18.83;;;1.10;99.90;;;;;;4992511;28;20210;-42
2020/12/04 01:45:34;;;;;;;23.33;17.73;;;1.10;99.90;;;;;;4992232;28;20241;-42
2020/12/04 01:48:02;;;;;;;23.10;18.73;;;1.10;99.90;;;;;;4992520;28;20309;-43
2020/12/04 01:50:29;;;;;;;25.00;18.83;;;1.10;99.90;;;;;;4992332;28;20312;-42
2020/12/04 01:52:57;;;;;;;25.10;18.73;;;1.10;99.90;;;;;;4992307;28;20551;-42
2020/12/04 01:55:25;;;;;;;23.60;17.63;;;1.00;99.90;;;;;;4992416;28;20297;-42
2020/12/04 01:57:53;;;;;;;22.43;17.97;;;1.00;99.90;;;;;;4992300;28;20309;-42
2020/12/04 02:00:21;;;;;;;24.73;19.30;;;1.00;99.90;;;;;;4992300;28;20642;-45
2020/12/04 02:02:48;;;;;;;24.13;18.13;;;1.00;99.90;;;;;;4992193;28;20296;-43
2020/12/04 02:05:16;;;;;;;26.20;17.97;;;1.00;99.90;;;;;;4992331;28;20300;-43
2020/12/04 02:07:51;;;;;;;22.23;18.60;;;1.00;99.90;;;;;;4992279;28;20685;-42
2020/12/04 02:10:22;;;;;;;28.50;19.33;;;1.00;99.90;;;;;;4992153;28;20210;-44
2020/12/04 02:12:50;;;;;;;26.70;19.40;;;0.90;99.90;;;;;;4992420;28;20313;-43
2020/12/04 02:15:18;;;;;;;23.17;17.57;;;0.90;99.90;;;;;;4992128;28;20763;-44
2020/12/04 02:17:46;;;;;;;25.67;18.90;;;0.90;99.90;;;;;;4992348;28;20309;-44
2020/12/04 02:20:13;;;;;;;27.53;18.10;;;0.90;99.90;;;;;;4992196;28;20300;-41
2020/12/04 02:22:41;;;;;;;25.33;19.20;;;0.90;99.90;;;;;;4992110;28;20202;-42
2020/12/04 02:25:09;;;;;;;26.53;18.27;;;0.90;99.90;;;;;;4992333;28;20297;-41
2020/12/04 02:27:45;;;;;;;26.87;19.90;;;0.80;99.90;;;;;;4992282;28;20214;-41
2020/12/04 02:30:15;;;;;;;26.43;18.93;;;0.80;99.90;;;;;;4992152;28;20217;-41
2020/12/04 02:32:42;;;;;;;26.23;19.13;;;0.80;99.90;;;;;;4992191;28;20230;-44
2020/12/04 02:35:09;;;;;;;25.57;19.97;;;0.70;99.90;;;;;;4992004;28;20390;-41
2020/12/04 02:37:37;;;;;;;23.90;18.53;;;0.70;99.90;;;;;;4992138;28;20214;-45
2020/12/04 02:40:05;;;;;;;25.37;18.47;;;0.70;99.90;;;;;;4992102;28;20209;-40
2020/12/04 02:42:32;;;;;;;28.40;18.53;;;0.70;99.90;;;;;;4991829;28;20297;-43
2020/12/04 02:44:59;;;;;;;27.27;19.57;;;0.70;99.90;;;;;;4991725;28;20242;-46
2020/12/04 02:47:27;;;;;;;25.50;18.90;;;0.80;99.90;;;;;;4993057;28;20216;-46
2020/12/04 02:49:54;;;;;;;26.20;18.57;;;0.80;99.90;;;;;;4995282;28;20673;-44
2020/12/04 02:52:22;;;;;;;23.10;18.60;;;0.80;99.90;;;;;;4995477;28;20325;-45
2020/12/04 02:54:49;;;;;;;24.70;18.10;;;0.70;99.90;;;;;;4995571;28;20297;-41
2020/12/04 02:57:17;;;;;;;24.20;17.70;;;0.80;99.90;;;;;;4995246;28;20301;-43
2020/12/04 02:59:44;;;;;;;25.73;18.67;;;0.80;99.90;;;;;;4995342;28;20297;-44
2020/12/04 03:02:11;;;;;;;26.37;19.70;;;0.80;99.90;;;;;;4995024;28;20684;-46
2020/12/04 03:04:39;;;;;;;27.27;18.83;;;0.80;99.90;;;;;;4994939;28;20264;-44
2020/12/04 03:07:06;;;;;;;24.20;18.23;;;0.80;99.90;;;;;;4995294;28;20210;-43
2020/12/04 03:09:33;;;;;;;24.47;18.00;;;0.80;99.90;;;;;;4995245;28;20380;-43
2020/12/04 03:12:00;;;;;;;26.07;18.60;;;0.80;99.90;;;;;;4994919;28;20230;-43
2020/12/04 03:14:28;;;;;;;28.37;19.47;;;0.80;99.90;;;;;;4994794;28;20246;-43
2020/12/04 03:16:55;;;;;;;24.00;18.13;;;0.90;99.90;;;;;;4994811;28;20687;-44
2020/12/04 03:19:23;;;;;;;22.73;17.27;;;0.80;99.90;;;;;;4994804;28;20245;-42
2020/12/04 03:21:50;;;;;;;24.73;18.37;;;0.80;99.90;;;;;;4995014;28;20232;-42
2020/12/04 03:24:17;;;;;;;24.70;17.93;;;0.80;99.90;;;;;;4994869;28;20221;-41
2020/12/04 03:26:44;;;;;;;23.97;17.73;;;0.80;99.90;;;;;;4994613;28;20293;-42
2020/12/04 03:29:11;;;;;;;29.23;19.67;;;0.70;99.90;;;;;;4994732;28;20297;-42
2020/12/04 03:31:40;;;;;;;26.97;19.13;;;0.70;99.90;;;;;;4994413;28;20220;-44
2020/12/04 03:34:07;;;;;;;29.03;20.10;;;0.70;99.90;;;;;;4994312;28;20206;-43
2020/12/04 03:36:35;;;;;;;24.43;17.67;;;0.60;99.90;;;;;;4994649;28;20217;-44
2020/12/04 03:39:02;;;;;;;29.10;19.87;;;0.60;99.90;;;;;;4994445;28;20234;-43
2020/12/04 03:41:30;;;;;;;25.83;19.90;;;0.60;99.90;;;;;;4994256;28;20205;-44
2020/12/04 03:43:56;;;;;;;25.37;19.60;;;0.60;99.90;;;;;;4994362;28;20297;-45
2020/12/04 03:46:23;;;;;;;29.63;19.30;;;0.70;99.90;;;;;;4994164;28;20337;-46
2020/12/04 03:48:51;;;;;;;25.67;19.73;;;0.70;99.90;;;;;;4994435;28;20209;-48
2020/12/04 03:51:18;;;;;;;24.97;19.20;;;0.70;99.90;;;;;;4994412;28;20206;-46
2020/12/04 03:53:47;;;;;;;28.15;21.15;;;0.70;99.90;;;;;;4994107;28;20241;-42
2020/12/04 03:56:13;;;;;;;30.13;20.77;;;0.70;99.90;;;;;;4994133;28;20264;-46
2020/12/04 03:58:40;;;;;;;31.40;19.40;;;0.70;99.90;;;;;;4993664;28;20237;-46
2020/12/04 04:01:07;;;;;;;30.77;21.13;;;0.80;99.90;;;;;;4994037;28;20308;-45
2020/12/04 04:03:35;;;;;;;28.17;19.43;;;0.90;99.90;;;;;;4994176;28;20206;-43
2020/12/04 04:06:02;;;;;;;30.43;19.93;;;0.90;99.90;;;;;;4993912;28;20771;-46
2020/12/04 04:08:29;;;;;;;28.47;19.40;;;0.90;99.90;;;;;;4993935;28;20206;-43
2020/12/04 04:10:59;;;;;;;27.33;19.63;;;1.00;99.90;;;;;;4993910;28;20210;-43
2020/12/04 04:13:26;;;;;;;30.27;20.30;;;1.00;99.90;;;;;;4994064;28;20910;-42
2020/12/04 04:15:55;;;;;;;28.23;20.17;;;1.10;99.90;;;;;;4993896;28;20209;-43
2020/12/04 04:18:22;;;;;;;27.17;18.73;;;1.10;99.90;;;;;;4994572;28;20206;-44
2020/12/04 04:20:49;;;;;;;28.70;19.93;;;1.10;99.90;;;;;;4994219;28;20210;-44
2020/12/04 04:23:17;;;;;;;26.90;19.17;;;1.20;99.90;;;;;;4993692;28;20303;-41
2020/12/04 04:25:44;;;;;;;34.97;22.83;;;1.10;99.90;;;;;;4993520;28;20293;-41
2020/12/04 04:28:11;;;;;;;26.40;19.20;;;0.90;99.90;;;;;;4993782;28;20289;-42
2020/12/04 04:30:39;;;;;;;29.13;20.73;;;0.80;99.90;;;;;;4993598;28;20213;-43
2020/12/04 04:33:08;;;;;;;29.30;20.80;;;0.80;99.90;;;;;;4993581;28;20737;-40
2020/12/04 04:35:35;;;;;;;29.63;20.60;;;0.80;99.90;;;;;;4993690;28;20374;-46
2020/12/04 04:38:02;;;;;;;30.13;20.87;;;0.90;99.90;;;;;;4993450;28;20253;-42
2020/12/04 04:40:30;;;;;;;31.10;21.07;;;1.00;99.90;;;;;;4993332;28;20313;-42
2020/12/04 04:43:09;;;;;;;29.53;20.17;;;1.00;99.90;;;;;;4992619;28;20241;-42
2020/12/04 04:45:39;;;;;;;27.23;20.10;;;1.10;99.90;;;;;;4974597;28;20248;-42
2020/12/04 04:48:11;;;;;;;30.83;21.27;;;1.10;99.90;;;;;;4974889;28;20217;-46
2020/12/04 04:50:42;;;;;;;32.43;21.20;;;1.10;99.90;;;;;;4973612;28;20666;-42
2020/12/04 04:53:10;;;;;;;31.00;20.70;;;1.10;99.90;;;;;;4973745;28;20317;-41
2020/12/04 04:55:41;;;;;;;27.17;20.20;;;1.10;99.90;;;;;;4973846;28;20239;-41
2020/12/04 04:58:08;;;;;;;27.83;19.83;;;1.00;99.90;;;;;;4973793;28;20250;-41
2020/12/04 05:00:35;;;;;;;30.57;21.57;;;0.90;99.90;;;;;;4973554;28;20254;-42
2020/12/04 05:03:04;;;;;;;31.40;21.73;;;0.80;99.90;;;;;;4973814;28;20298;-42
2020/12/04 05:05:44;;;;;;;29.30;21.10;;;0.70;99.90;;;;;;4973306;28;20217;-44
2020/12/04 05:08:13;;;;;;;30.40;20.83;;;0.70;99.90;;;;;;4973494;28;20636;-45
2020/12/04 05:10:41;;;;;;;32.13;22.33;;;0.80;99.90;;;;;;4972606;28;20215;-41
2020/12/04 05:13:08;;;;;;;27.13;20.20;;;0.80;99.90;;;;;;4973261;28;20227;-43
2020/12/04 05:15:36;;;;;;;30.93;21.37;;;0.70;99.90;;;;;;4973066;28;20670;-41
2020/12/04 05:18:09;;;;;;;27.70;20.77;;;0.70;99.90;;;;;;4973287;28;20207;-41
2020/12/04 05:20:38;;;;;;;32.53;21.67;;;0.80;99.90;;;;;;4973357;28;20625;-43
2020/12/04 05:23:06;;;;;;;77.33;45.80;;;0.80;99.90;;;;;;4973300;28;20213;-44
2020/12/04 05:25:35;;;;;;;34.67;23.87;;;0.80;99.90;;;;;;4973157;28;20211;-42
2020/12/04 05:28:11;;;;;;;30.77;20.77;;;0.80;99.90;;;;;;4972832;28;20688;-44
2020/12/04 05:30:40;;;;;;;30.03;21.17;;;0.80;99.90;;;;;;4973241;28;20302;-44
2020/12/04 05:33:08;;;;;;;28.67;20.70;;;0.90;99.90;;;;;;4973180;28;20338;-42
2020/12/04 05:35:36;;;;;;;30.77;21.40;;;1.00;99.90;;;;;;4973123;28;20297;-46
2020/12/04 05:38:08;;;;;;;28.43;20.97;;;1.00;99.90;;;;;;4973153;28;20301;-44
2020/12/04 05:40:36;;;;;;;29.93;21.87;;;1.10;99.90;;;;;;4972799;28;20644;-42
2020/12/04 05:43:04;;;;;;;40.33;24.13;;;1.10;99.90;;;;;;4972919;28;20219;-45
2020/12/04 05:45:32;;;;;;;33.37;22.77;;;1.10;99.90;;;;;;4972861;28;20333;-43
2020/12/04 05:47:59;;;;;;;31.33;21.23;;;1.10;99.90;;;;;;4972768;28;20764;-47
2020/12/04 05:50:27;;;;;;;30.60;20.67;;;1.00;99.90;;;;;;4972865;28;20211;-43
2020/12/04 05:52:54;;;;;;;28.73;20.20;;;1.00;99.90;;;;;;4972736;28;20773;-42
2020/12/04 05:55:21;;;;;;;30.33;22.50;;;1.10;99.90;;;;;;4972757;28;20305;-43
2020/12/04 05:57:52;;;;;;;29.77;20.90;;;1.20;99.90;;;;;;4973397;28;20210;-43
2020/12/04 06:00:21;;;;;;;38.43;27.10;;;1.20;99.90;;;;;;4973078;28;20547;-44
2020/12/04 06:02:57;;;;;;;30.92;22.08;;;1.20;99.90;;;;;;4973069;28;20247;-43
2020/12/04 06:05:26;;;;;;;27.47;20.87;;;1.20;99.90;;;;;;4973004;28;20217;-45
2020/12/04 06:07:59;;;;;;;39.57;26.47;;;1.20;99.90;;;;;;4972897;28;20246;-46
2020/12/04 06:10:27;;;;;;;31.30;22.13;;;1.20;99.90;;;;;;4972780;28;20250;-47
2020/12/04 06:12:55;;;;;;;29.47;22.13;;;1.30;99.90;;;;;;4972834;28;20745;-43
2020/12/04 06:15:24;;;;;;;34.67;23.33;;;1.30;99.90;;;;;;4972935;28;20297;-44
2020/12/04 06:17:51;;;;;;;36.47;25.03;;;1.30;99.90;;;;;;4972904;28;20685;-44
2020/12/04 06:20:21;;;;;;;28.63;21.17;;;1.30;99.90;;;;;;4972849;28;20254;-48
2020/12/04 06:23:09;;;;;;;36.70;24.03;;;1.30;99.90;;;;;;4976283;28;20210;-45
2020/12/04 06:25:58;;;;;;;31.77;21.70;;;1.40;99.90;;;;;;4976504;28;20297;-48
2020/12/04 06:28:27;;;;;;;29.17;21.17;;;1.30;99.90;;;;;;4972288;28;20246;-45
2020/12/04 06:31:09;;;;;;;29.67;21.03;;;1.30;99.90;;;;;;4976223;28;20715;-46
2020/12/04 06:33:47;;;;;;;30.23;20.57;;;1.20;99.90;;;;;;4976451;28;20321;-44
2020/12/04 06:36:36;;;;;;;28.07;19.87;;;1.20;99.90;;;;;;4976884;28;20616;-43
2020/12/04 06:39:06;;;;;;;31.97;20.90;;;1.20;99.90;;;;;;4975879;28;20211;-48
2020/12/04 06:41:35;;;;;;;28.43;22.27;;;1.30;99.90;;;;;;4976113;28;20305;-47
2020/12/04 06:44:04;;;;;;;29.13;20.57;;;1.50;99.90;;;;;;4976166;28;20203;-45
2020/12/04 06:46:42;;;;;;;28.43;21.27;;;1.50;99.90;;;;;;4975607;28;20729;-45
2020/12/04 06:49:34;;;;;;;31.20;20.17;;;1.40;99.90;;;;;;4975979;28;20349;-49
2020/12/04 06:52:16;;;;;;;30.63;20.43;;;1.30;99.90;;;;;;4975631;28;20707;-44
2020/12/04 06:54:45;;;;;;;32.78;21.55;;;1.40;99.90;;;;;;4976040;28;20214;-48
2020/12/04 06:57:12;;;;;;;31.73;20.85;;;1.50;99.90;;;;;;4975740;28;20293;-46
2020/12/04 06:59:41;;;;;;;32.07;23.20;;;1.60;99.90;;;;;;4975738;28;20238;-45
2020/12/04 07:02:10;;;;;;;29.57;21.30;;;1.40;99.90;;;;;;4975649;28;20225;-47
2020/12/04 07:04:40;;;;;;;30.37;21.90;;;1.40;99.90;;;;;;4975831;28;20641;-47
2020/12/04 07:07:12;;;;;;;33.40;22.10;;;1.30;99.90;;;;;;4975487;28;20226;-50
2020/12/04 07:09:41;;;;;;;33.22;21.42;;;1.30;99.90;;;;;;4975724;28;20238;-52
2020/12/04 07:12:10;;;;;;;40.40;28.23;;;1.30;99.90;;;;;;4975568;28;20237;-50
2020/12/04 07:14:37;;;;;;;32.30;22.93;;;1.30;99.90;;;;;;4975528;28;20214;-44
2020/12/04 07:17:04;;;;;;;31.33;23.00;;;1.30;99.90;;;;;;4975640;28;20297;-51
2020/12/04 07:19:31;;;;;;;34.10;25.23;;;1.30;99.90;;;;;;4975623;28;20333;-49
2020/12/04 07:21:58;;;;;;;31.10;22.67;;;1.40;99.90;;;;;;4975265;28;20252;-49
2020/12/04 07:24:26;;;;;;;33.17;25.53;;;1.40;99.90;;;;;;4975533;28;20207;-45
2020/12/04 07:26:57;;;;;;;29.50;21.27;;;1.50;99.90;;;;;;4975260;28;20221;-47
2020/12/04 07:29:25;;;;;;;31.67;21.37;;;1.50;99.90;;;;;;4975150;28;20302;-48
2020/12/04 07:31:54;;;;;;;27.00;20.03;;;1.70;99.90;;;;;;4975621;28;20290;-45
2020/12/04 07:34:23;;;;;;;28.13;20.80;;;1.70;99.90;;;;;;4974616;28;20266;-48
2020/12/04 07:36:54;;;;;;;32.07;21.13;;;1.70;99.90;;;;;;4975236;28;20306;-46
2020/12/04 07:39:29;;;;;;;32.07;21.63;;;1.80;99.90;;;;;;4975065;28;20246;-49
2020/12/04 07:41:58;;;;;;;29.27;21.57;;;1.80;99.90;;;;;;4975200;28;20214;-45
2020/12/04 07:44:34;;;;;;;28.33;20.00;;;1.90;99.90;;;;;;4974798;28;20231;-45
2020/12/04 07:47:07;;;;;;;31.50;22.30;;;2.00;99.90;;;;;;4975265;28;20242;-46
2020/12/04 07:49:37;;;;;;;33.20;22.57;;;2.10;99.90;;;;;;4974639;28;20221;-49
2020/12/04 07:52:13;;;;;;;34.50;23.10;;;2.10;99.90;;;;;;4974760;28;20310;-48
2020/12/04 07:54:42;;;;;;;32.80;21.17;;;2.10;99.90;;;;;;4975106;28;20230;-45
2020/12/04 07:57:09;;;;;;;30.03;21.70;;;2.00;99.90;;;;;;4974769;28;20289;-47
2020/12/04 07:59:39;;;;;;;30.90;21.20;;;1.90;99.90;;;;;;4974724;28;20210;-47
2020/12/04 08:02:08;;;;;;;32.03;21.90;;;2.10;99.90;;;;;;4974669;28;20242;-47
2020/12/04 08:04:35;;;;;;;33.30;22.77;;;2.20;99.90;;;;;;4974169;28;20295;-48
2020/12/04 08:07:07;;;;;;;31.20;21.80;;;2.30;99.90;;;;;;4974498;28;20246;-49
2020/12/04 08:09:39;;;;;;;31.03;21.10;;;2.30;99.90;;;;;;4974665;28;20294;-49
2020/12/04 08:12:27;;;;;;;32.63;22.57;;;2.40;99.90;;;;;;4974268;28;20215;-44
2020/12/04 08:14:57;;;;;;;33.63;22.53;;;2.20;99.90;;;;;;4974138;28;20266;-45
2020/12/04 08:17:25;;;;;;;32.30;22.33;;;2.10;99.90;;;;;;4974009;28;20269;-46
2020/12/04 08:19:53;;;;;;;30.87;22.30;;;2.10;99.90;;;;;;4974131;28;20215;-47
2020/12/04 08:22:27;;;;;;;30.93;21.97;;;2.10;99.90;;;;;;4974018;28;20215;-45
2020/12/04 08:25:04;;;;;;;32.47;22.40;;;2.10;99.90;;;;;;4973935;28;20217;-46
2020/12/04 08:27:35;;;;;;;32.27;22.40;;;2.20;99.90;;;;;;4973824;28;20732;-46
2020/12/04 08:30:09;;;;;;;33.77;23.10;;;2.40;99.90;;;;;;4973759;28;20684;-46
2020/12/04 08:32:36;;;;;;;35.80;25.87;;;2.50;99.90;;;;;;4974044;28;20306;-47
2020/12/04 08:35:09;;;;;;;29.80;22.20;;;2.50;99.90;;;;;;4974050;28;20680;-45
2020/12/04 08:37:37;;;;;;;34.23;23.73;;;2.40;99.90;;;;;;4973742;28;20217;-43
2020/12/04 08:40:05;;;;;;;37.03;25.77;;;2.40;99.90;;;;;;4973863;28;20304;-46
2020/12/04 08:42:34;;;;;;;32.83;23.37;;;2.40;99.90;;;;;;4973847;28;20214;-44
2020/12/04 08:45:07;;;;;;;32.33;24.00;;;2.60;99.90;;;;;;4973439;28;20242;-45
2020/12/04 08:47:40;;;;;;;36.13;23.90;;;2.70;99.90;;;;;;4973712;28;20215;-44
2020/12/04 08:50:13;;;;;;;30.23;22.13;;;2.70;99.90;;;;;;4973641;28;20298;-46
2020/12/04 08:52:44;;;;;;;35.20;23.00;;;2.70;99.90;;;;;;4973866;28;20215;-44
2020/12/04 08:55:14;;;;;;;34.67;23.90;;;2.70;99.90;;;;;;4973753;28;20221;-44
2020/12/04 08:57:44;;;;;;;34.37;23.30;;;2.50;99.90;;;;;;4973814;28;20211;-45
2020/12/04 09:00:14;;;;;;;33.50;23.83;;;2.50;99.90;;;;;;4973585;28;20211;-45
2020/12/04 09:02:42;;;;;;;34.10;23.83;;;2.40;99.90;;;;;;4973514;28;20410;-48
2020/12/04 09:05:14;;;;;;;31.55;23.55;;;2.40;99.90;;;;;;4973735;28;20218;-47
2020/12/04 09:07:42;;;;;;;35.87;24.20;;;2.20;99.90;;;;;;4973706;28;20250;-47
2020/12/04 09:10:11;;;;;;;34.73;24.43;;;2.10;99.90;;;;;;4973701;28;20215;-46
2020/12/04 09:12:40;;;;;;;37.10;26.27;;;2.10;99.90;;;;;;4973468;28;20224;-46
2020/12/04 09:15:11;;;;;;;37.10;25.40;;;2.10;99.90;;;;;;4973345;28;20274;-44
2020/12/04 09:17:39;;;;;;;39.03;27.30;;;2.10;99.90;;;;;;4973456;28;20647;-46
2020/12/04 09:20:08;;;;;;;35.10;26.50;;;2.20;99.90;;;;;;4973771;28;20207;-44
2020/12/04 09:22:36;;;;;;;35.63;23.80;;;2.30;99.90;;;;;;4973404;28;20301;-44
2020/12/04 09:25:04;;;;;;;32.23;23.63;;;2.30;99.90;;;;;;4973438;28;20210;-47
2020/12/04 09:27:31;;;;;;;39.07;26.13;;;2.40;99.90;;;;;;4973710;28;20306;-44
2020/12/04 09:29:58;;;;;;;34.53;24.87;;;2.40;99.90;;;;;;4973147;28;20210;-45
2020/12/04 09:32:27;;;;;;;31.70;22.10;;;2.50;99.90;;;;;;4973605;28;20245;-44
2020/12/04 09:34:54;;;;;;;36.43;24.60;;;2.60;99.90;;;;;;4973436;28;20297;-45
2020/12/04 09:37:23;;;;;;;38.17;24.97;;;2.80;99.90;;;;;;4973355;28;20309;-43
2020/12/04 09:39:53;;;;;;;33.73;25.10;;;3.00;99.90;;;;;;4973292;28;20238;-46
2020/12/04 09:42:22;;;;;;;36.93;24.50;;;3.10;99.90;;;;;;4973121;28;20306;-45
2020/12/04 09:44:49;;;;;;;36.37;23.67;;;3.20;99.90;;;;;;4972712;28;20262;-45
2020/12/04 09:47:17;;;;;;;34.83;23.37;;;3.20;99.90;;;;;;4973063;28;20670;-45
2020/12/04 09:49:45;;;;;;;32.57;24.07;;;3.20;99.90;;;;;;4973094;28;20297;-44
2020/12/04 09:52:15;;;;;;;31.17;23.57;;;3.30;99.90;;;;;;4972812;28;20301;-46
2020/12/04 09:54:44;;;;;;;30.93;22.47;;;3.30;99.90;;;;;;4972826;28;20223;-48
2020/12/04 09:57:13;;;;;;;32.43;23.30;;;3.30;99.90;;;;;;4975631;28;20216;-45
2020/12/04 09:59:40;;;;;;;34.50;22.93;;;3.20;99.90;;;;;;4977005;28;20211;-45
2020/12/04 10:02:08;;;;;;;33.93;24.27;;;3.20;99.90;;;;;;4977047;28;20585;-45
2020/12/04 10:04:37;;;;;;;31.17;22.70;;;3.30;99.90;;;;;;4976660;28;20211;-44
2020/12/04 10:07:05;;;;;;;35.20;23.30;;;3.40;99.90;;;;;;4976630;28;20245;-45
2020/12/04 10:09:34;;;;;;;33.27;24.03;;;3.40;99.90;;;;;;4976648;28;20688;-48
2020/12/04 10:12:01;;;;;;;36.00;23.37;;;3.40;99.90;;;;;;4976779;28;20308;-49
2020/12/04 10:14:28;;;;;;;33.93;24.70;;;3.50;99.90;;;;;;4976614;28;20235;-48
2020/12/04 10:16:56;;;;;;;32.97;23.07;;;3.60;99.90;;;;;;4976617;28;20626;-48
2020/12/04 10:19:23;;;;;;;31.43;22.17;;;3.60;99.90;;;;;;4976688;28;20206;-44
2020/12/04 10:21:51;;;;;;;32.47;26.07;;;3.60;99.90;;;;;;4976419;28;20242;-51
2020/12/04 10:24:19;;;;;;;32.03;22.90;;;3.50;99.90;;;;;;4976544;28;20238;-43
2020/12/04 10:26:48;;;;;;;30.97;20.13;;;3.30;99.90;;;;;;4976772;28;20265;-42
2020/12/04 10:29:18;;;;;;;32.00;22.53;;;3.20;99.90;;;;;;4976336;28;20692;-48
2020/12/04 10:31:46;;;;;;;33.17;23.93;;;3.40;99.90;;;;;;4976331;28;20217;-45
2020/12/04 10:34:14;;;;;;;29.73;22.57;;;3.50;99.90;;;;;;4976060;28;20642;-47
2020/12/04 10:36:41;;;;;;;31.70;23.20;;;3.50;99.90;;;;;;4975495;28;20688;-45
2020/12/04 10:39:11;;;;;;;30.87;21.13;;;3.50;99.90;;;;;;4976133;28;20225;-46
2020/12/04 10:41:40;;;;;;;33.73;23.67;;;3.40;99.90;;;;;;4975686;28;20264;-46
2020/12/04 10:44:09;;;;;;;31.77;22.63;;;3.40;99.90;;;;;;4975878;28;20570;-45
2020/12/04 10:46:37;;;;;;;32.40;21.60;;;3.40;99.90;;;;;;4975493;28;20258;-45
2020/12/04 10:49:06;;;;;;;31.70;22.13;;;3.50;99.90;;;;;;4975532;28;20207;-46
2020/12/04 10:51:34;;;;;;;34.57;24.13;;;3.70;99.90;;;;;;4975738;28;20210;-50
2020/12/04 10:54:02;;;;;;;31.38;23.25;;;3.80;99.90;;;;;;4975731;28;20262;-45
2020/12/04 10:56:31;;;;;;;32.17;23.20;;;3.80;99.90;;;;;;4975744;28;20219;-48
2020/12/04 10:58:59;;;;;;;30.58;22.17;;;3.90;99.90;;;;;;4975598;28;20749;-44
2020/12/04 11:01:37;;;;;;;32.43;22.73;;;4.00;99.90;;;;;;4975741;28;20515;-45
2020/12/04 11:06:49;;;;;;;31.80;21.30;;;4.10;99.90;;;;;;4975438;28;20245;-45
2020/12/04 11:09:16;;;;;;;30.60;21.73;;;4.20;99.90;;;;;;4974515;28;20218;-50
2020/12/04 11:11:44;;;;;;;28.90;20.97;;;4.20;99.90;;;;;;4975196;28;20467;-46
2020/12/04 11:14:12;;;;;;;27.47;20.10;;;4.30;99.80;;;;;;4974975;28;20512;-44
2020/12/04 11:16:41;;;;;;;26.43;19.77;;;4.20;99.80;;;;;;4975253;28;20218;-50
2020/12/04 11:19:09;;;;;;;29.10;22.03;;;4.10;99.90;;;;;;4975404;28;20286;-45
2020/12/04 11:21:37;;;;;;;27.77;21.10;;;4.10;99.90;;;;;;4975392;28;20215;-44
2020/12/04 11:24:04;;;;;;;29.80;20.60;;;4.00;99.90;;;;;;4975263;28;20211;-42
2020/12/04 11:26:32;;;;;;;30.47;22.00;;;3.90;99.90;;;;;;4974903;28;20301;-44
2020/12/04 11:28:59;;;;;;;32.70;21.10;;;4.00;99.90;;;;;;4975456;28;20235;-43
2020/12/04 11:31:28;;;;;;;32.20;22.20;;;4.00;99.90;;;;;;4975307;28;20551;-45
2020/12/04 11:33:55;;;;;;;26.53;19.83;;;3.90;99.90;;;;;;4975005;28;20238;-44
2020/12/04 11:36:22;;;;;;;31.63;22.60;;;3.90;99.90;;;;;;4975015;28;20222;-44
2020/12/04 11:38:49;;;;;;;27.48;21.10;;;4.00;99.90;;;;;;4975060;28;20627;-44
2020/12/04 11:41:16;;;;;;;28.08;20.45;;;4.00;99.90;;;;;;4974843;28;20214;-45
2020/12/04 11:43:44;;;;;;;31.33;21.90;;;4.10;99.90;;;;;;4974966;28;20211;-46
2020/12/04 11:46:11;;;;;;;31.00;21.67;;;4.20;99.90;;;;;;4974840;28;20370;-45
2020/12/04 11:48:40;;;;;;;30.77;21.63;;;4.20;99.90;;;;;;4974937;28;20245;-45
2020/12/04 11:51:07;;;;;;;27.07;21.13;;;4.30;99.90;;;;;;4974948;28;20669;-44
2020/12/04 11:53:34;;;;;;;28.65;21.90;;;4.30;99.90;;;;;;4974782;28;20231;-44
2020/12/04 11:56:01;;;;;;;27.30;20.33;;;4.30;99.90;;;;;;4975086;28;20211;-45
2020/12/04 11:58:28;;;;;;;31.93;21.53;;;4.20;99.90;;;;;;4975120;28;20262;-47
2020/12/04 12:00:55;;;;;;;28.97;21.13;;;4.20;99.90;;;;;;4974792;28;20210;-48
2020/12/04 12:03:22;;;;;;;32.50;22.70;;;4.30;99.90;;;;;;4974843;28;20806;-44
2020/12/04 12:05:50;;;;;;;30.77;21.27;;;4.20;99.90;;;;;;4974667;28;20541;-44
2020/12/04 12:08:17;;;;;;;29.47;20.87;;;4.40;99.90;;;;;;4974459;28;20301;-48
2020/12/04 12:10:44;;;;;;;32.63;23.17;;;4.40;99.90;;;;;;4978272;28;20255;-46
2020/12/04 12:13:11;;;;;;;31.48;23.15;;;4.40;99.90;;;;;;5013319;28;20300;-44
2020/12/04 12:15:38;;;;;;;29.83;21.87;;;4.40;99.90;;;;;;5013342;28;20740;-45
2020/12/04 12:18:05;;;;;;;33.63;24.73;;;4.30;99.90;;;;;;5013466;28;20684;-45
2020/12/04 12:20:32;;;;;;;33.10;23.93;;;4.30;99.90;;;;;;5013154;28;20288;-47
2020/12/04 12:23:00;;;;;;;31.33;22.37;;;4.30;99.90;;;;;;5013152;28;20301;-44
2020/12/04 12:25:27;;;;;;;29.50;22.40;;;4.30;99.90;;;;;;5013365;28;20201;-44
2020/12/04 12:28:05;;;;;;;27.27;20.83;;;4.20;99.90;;;;;;5013195;28;20635;-43
2020/12/04 12:30:32;;;;;;;29.77;22.20;;;4.20;99.90;;;;;;5013175;28;20244;-46
2020/12/04 12:32:59;;;;;;;33.67;22.07;;;4.30;99.90;;;;;;5013199;28;20280;-44
2020/12/04 12:35:26;;;;;;;28.33;20.63;;;4.40;99.90;;;;;;5012888;28;20235;-48
2020/12/04 12:37:54;;;;;;;30.80;22.03;;;4.50;99.90;;;;;;5012769;28;20696;-45
2020/12/04 12:40:21;;;;;;;29.87;21.47;;;4.40;99.90;;;;;;5013142;28;20224;-46
2020/12/04 12:42:48;;;;;;;27.17;21.53;;;4.40;99.90;;;;;;5013086;28;20209;-55
2020/12/04 12:45:16;;;;;;;32.57;21.43;;;4.40;99.90;;;;;;5012660;28;20322;-49
2020/12/04 12:47:43;;;;;;;27.48;20.95;;;4.40;99.90;;;;;;5012466;28;20209;-49